sensor_id;sensor_type;location;lat;lon;timestamp;pressure;altitude;pressure_sealevel;temperature;humidity
11345;BME280;5727;42.600;23.028;2024-03-06T00:00:52;93394.63;;;5.21;100.00
11345;BME280;5727;42.600;23.028;2024-03-06T00:03:19;93398.31;;;5.20;100.00
11345;BME280;5727;42.600;23.028;2024-03-06T00:05:47;93399.34;;;5.11;100.00
11345;BME280;5727;42.600;23.028;2024-03-06T00:08:15;93404.94;;;5.04;100.00
11345;BME280;5727;42.600;23.028;2024-03-06T00:10:42;93400.81;;;5.03;100.00
11345;BME280;5727;42.600;23.028;2024-03-06T00:13:10;93404.78;;;5.01;100.00
11345;BME280;5727;42.600;23.028;2024-03-06T00:15:37;93400.69;;;5.08;100.00
11345;BME280;5727;42.600;23.028;2024-03-06T00:18:05;93405.47;;;5.15;100.00
11345;BME280;5727;42.600;23.028;2024-03-06T00:20:31;93404.56;;;5.19;100.00
11345;BME280;5727;42.600;23.028;2024-03-06T00:22:58;93405.19;;;5.25;100.00
11345;BME280;5727;42.600;23.028;2024-03-06T00:25:27;93398.63;;;5.27;100.00
11345;BME280;5727;42.600;23.028;2024-03-06T00:27:54;93410.53;;;5.28;100.00
11345;BME280;5727;42.600;23.028;2024-03-06T00:30:21;93398.63;;;5.27;100.00
11345;BME280;5727;42.600;23.028;2024-03-06T00:32:48;93398.78;;;5.31;100.00
11345;BME280;5727;42.600;23.028;2024-03-06T00:35:14;93395.31;;;5.35;100.00
11345;BME280;5727;42.600;23.028;2024-03-06T00:37:41;93405.69;;;5.35;100.00
11345;BME280;5727;42.600;23.028;2024-03-06T00:40:09;93399.44;;;5.36;100.00
11345;BME280;5727;42.600;23.028;2024-03-06T00:42:38;93399.72;;;5.35;100.00
11345;BME280;5727;42.600;23.028;2024-03-06T00:45:06;93398.03;;;5.30;100.00
11345;BME280;5727;42.600;23.028;2024-03-06T00:47:33;93401.94;;;5.19;100.00
11345;BME280;5727;42.600;23.028;2024-03-06T00:50:00;93406.09;;;5.20;100.00
11345;BME280;5727;42.600;23.028;2024-03-06T00:52:27;93410.06;;;5.26;100.00
11345;BME280;5727;42.600;23.028;2024-03-06T00:54:54;93408.56;;;5.25;100.00
11345;BME280;5727;42.600;23.028;2024-03-06T00:57:21;93414.69;;;5.29;100.00
11345;BME280;5727;42.600;23.028;2024-03-06T00:59:49;93407.94;;;5.28;100.00
11345;BME280;5727;42.600;23.028;2024-03-06T01:02:16;93412.66;;;5.26;100.00
11345;BME280;5727;42.600;23.028;2024-03-06T01:04:43;93414.53;;;5.26;100.00
11345;BME280;5727;42.600;23.028;2024-03-06T01:07:10;93406.56;;;5.22;100.00
11345;BME280;5727;42.600;23.028;2024-03-06T01:09:37;93407.63;;;5.21;100.00
11345;BME280;5727;42.600;23.028;2024-03-06T01:12:04;93409.28;;;5.17;100.00
11345;BME280;5727;42.600;23.028;2024-03-06T01:14:31;93420.28;;;5.14;100.00
11345;BME280;5727;42.600;23.028;2024-03-06T01:16:59;93405.41;;;5.06;100.00
11345;BME280;5727;42.600;23.028;2024-03-06T01:19:26;93413.38;;;5.10;100.00
11345;BME280;5727;42.600;23.028;2024-03-06T01:21:53;93412.25;;;5.02;100.00
11345;BME280;5727;42.600;23.028;2024-03-06T01:24:20;93404.78;;;5.01;100.00
11345;BME280;5727;42.600;23.028;2024-03-06T01:26:47;93407.19;;;4.97;100.00
11345;BME280;5727;42.600;23.028;2024-03-06T01:29:14;93414.22;;;4.97;100.00
11345;BME280;5727;42.600;23.028;2024-03-06T01:31:41;93408.09;;;4.93;100.00
11345;BME280;5727;42.600;23.028;2024-03-06T01:34:09;93414.63;;;4.90;100.00
11345;BME280;5727;42.600;23.028;2024-03-06T01:36:36;93415.69;;;4.89;100.00
11345;BME280;5727;42.600;23.028;2024-03-06T01:39:03;93413.56;;;4.91;100.00
11345;BME280;5727;42.600;23.028;2024-03-06T01:41:30;93416.72;;;4.80;100.00
11345;BME280;5727;42.600;23.028;2024-03-06T01:43:57;93413.00;;;4.72;100.00
11345;BME280;5727;42.600;23.028;2024-03-06T01:46:24;93416.16;;;4.69;100.00
11345;BME280;5727;42.600;23.028;2024-03-06T01:48:51;93413.88;;;4.68;100.00
11345;BME280;5727;42.600;23.028;2024-03-06T01:51:19;93414.19;;;4.66;100.00
11345;BME280;5727;42.600;23.028;2024-03-06T01:53:47;93415.53;;;4.63;100.00
11345;BME280;5727;42.600;23.028;2024-03-06T01:56:15;93412.16;;;4.63;100.00
11345;BME280;5727;42.600;23.028;2024-03-06T01:58:45;93419.38;;;4.66;100.00
11345;BME280;5727;42.600;23.028;2024-03-06T02:01:12;93420.13;;;4.67;100.00
11345;BME280;5727;42.600;23.028;2024-03-06T02:03:39;93428.19;;;4.65;100.00
11345;BME280;5727;42.600;23.028;2024-03-06T02:06:07;93425.13;;;4.63;100.00
11345;BME280;5727;42.600;23.028;2024-03-06T02:08:35;93435.63;;;4.58;100.00
11345;BME280;5727;42.600;23.028;2024-03-06T02:11:03;93434.28;;;4.60;100.00
11345;BME280;5727;42.600;23.028;2024-03-06T02:13:30;93441.91;;;4.57;100.00
11345;BME280;5727;42.600;23.028;2024-03-06T02:15:57;93441.44;;;4.55;100.00
11345;BME280;5727;42.600;23.028;2024-03-06T02:18:24;93439.41;;;4.52;100.00
11345;BME280;5727;42.600;23.028;2024-03-06T02:20:52;93437.88;;;4.51;100.00
11345;BME280;5727;42.600;23.028;2024-03-06T02:23:19;93441.53;;;4.50;100.00
11345;BME280;5727;42.600;23.028;2024-03-06T02:25:47;93436.63;;;4.48;100.00
11345;BME280;5727;42.600;23.028;2024-03-06T02:28:15;93438.75;;;4.46;100.00
11345;BME280;5727;42.600;23.028;2024-03-06T02:30:43;93443.63;;;4.48;100.00
11345;BME280;5727;42.600;23.028;2024-03-06T02:33:10;93437.72;;;4.47;100.00
11345;BME280;5727;42.600;23.028;2024-03-06T02:35:37;93441.03;;;4.48;100.00
11345;BME280;5727;42.600;23.028;2024-03-06T02:38:06;93440.47;;;4.51;100.00
11345;BME280;5727;42.600;23.028;2024-03-06T02:40:34;93444.41;;;4.48;100.00
11345;BME280;5727;42.600;23.028;2024-03-06T02:43:00;93444.13;;;4.50;100.00
11345;BME280;5727;42.600;23.028;2024-03-06T02:45:28;93447.00;;;4.48;100.00
11345;BME280;5727;42.600;23.028;2024-03-06T02:47:54;93436.94;;;4.47;100.00
11345;BME280;5727;42.600;23.028;2024-03-06T02:50:21;93445.28;;;4.44;100.00
11345;BME280;5727;42.600;23.028;2024-03-06T02:52:49;93444.81;;;4.42;100.00
11345;BME280;5727;42.600;23.028;2024-03-06T02:55:18;93441.75;;;4.40;100.00
11345;BME280;5727;42.600;23.028;2024-03-06T02:57:45;93444.63;;;4.38;100.00
11345;BME280;5727;42.600;23.028;2024-03-06T03:00:13;93451.19;;;4.36;100.00
11345;BME280;5727;42.600;23.028;2024-03-06T03:02:41;93451.47;;;4.34;100.00
11345;BME280;5727;42.600;23.028;2024-03-06T03:05:09;93445.06;;;4.32;100.00
11345;BME280;5727;42.600;23.028;2024-03-06T03:07:36;93451.28;;;4.31;100.00
11345;BME280;5727;42.600;23.028;2024-03-06T03:10:03;93447.16;;;4.30;100.00
11345;BME280;5727;42.600;23.028;2024-03-06T03:12:33;93452.91;;;4.27;100.00
11345;BME280;5727;42.600;23.028;2024-03-06T03:15:00;93460.22;;;4.25;100.00
11345;BME280;5727;42.600;23.028;2024-03-06T03:17:27;93464.66;;;4.24;100.00
11345;BME280;5727;42.600;23.028;2024-03-06T03:19:54;93447.50;;;4.15;100.00
11345;BME280;5727;42.600;23.028;2024-03-06T03:22:21;93466.56;;;4.19;100.00
11345;BME280;5727;42.600;23.028;2024-03-06T03:24:48;93465.53;;;4.20;100.00
11345;BME280;5727;42.600;23.028;2024-03-06T03:27:15;93465.53;;;4.20;100.00
11345;BME280;5727;42.600;23.028;2024-03-06T03:29:44;93473.59;;;4.18;100.00
11345;BME280;5727;42.600;23.028;2024-03-06T03:32:10;93460.47;;;4.15;100.00
11345;BME280;5727;42.600;23.028;2024-03-06T03:34:37;93463.53;;;4.17;100.00
11345;BME280;5727;42.600;23.028;2024-03-06T03:37:05;93472.81;;;4.18;100.00
11345;BME280;5727;42.600;23.028;2024-03-06T03:39:32;93474.34;;;4.19;100.00
11345;BME280;5727;42.600;23.028;2024-03-06T03:41:58;93460.16;;;4.16;100.00
11345;BME280;5727;42.600;23.028;2024-03-06T03:44:25;93464.09;;;4.14;100.00
11345;BME280;5727;42.600;23.028;2024-03-06T03:46:54;93462.56;;;4.13;100.00
11345;BME280;5727;42.600;23.028;2024-03-06T03:49:21;93467.09;;;4.07;100.00
11345;BME280;5727;42.600;23.028;2024-03-06T03:51:48;93465.84;;;4.05;100.00
11345;BME280;5727;42.600;23.028;2024-03-06T03:54:15;93470.56;;;4.03;100.00
11345;BME280;5727;42.600;23.028;2024-03-06T03:56:42;93483.22;;;4.04;100.00
11345;BME280;5727;42.600;23.028;2024-03-06T03:59:09;93478.31;;;4.03;100.00
11345;BME280;5727;42.600;23.028;2024-03-06T04:01:36;93478.31;;;4.03;100.00
11345;BME280;5727;42.600;23.028;2024-03-06T04:04:05;93480.25;;;3.97;100.00
11345;BME280;5727;42.600;23.028;2024-03-06T04:06:32;93480.25;;;3.97;100.00
11345;BME280;5727;42.600;23.028;2024-03-06T04:08:59;93487.72;;;3.99;100.00
11345;BME280;5727;42.600;23.028;2024-03-06T04:11:26;93487.72;;;3.99;100.00
11345;BME280;5727;42.600;23.028;2024-03-06T04:13:53;93496.00;;;4.01;100.00
11345;BME280;5727;42.600;23.028;2024-03-06T04:16:20;93498.28;;;4.02;100.00
11345;BME280;5727;42.600;23.028;2024-03-06T04:18:47;93503.19;;;4.04;100.00
11345;BME280;5727;42.600;23.028;2024-03-06T04:21:15;93512.88;;;3.98;100.00
11345;BME280;5727;42.600;23.028;2024-03-06T04:23:43;93510.75;;;4.00;100.00
11345;BME280;5727;42.600;23.028;2024-03-06T04:26:10;93510.00;;;4.00;100.00
11345;BME280;5727;42.600;23.028;2024-03-06T04:28:37;93513.34;;;4.00;100.00
11345;BME280;5727;42.600;23.028;2024-03-06T04:31:04;93515.38;;;3.90;100.00
11345;BME280;5727;42.600;23.028;2024-03-06T04:33:31;93515.00;;;3.83;100.00
11345;BME280;5727;42.600;23.028;2024-03-06T04:36:00;93514.44;;;3.86;100.00
11345;BME280;5727;42.600;23.028;2024-03-06T04:38:29;93516.13;;;3.90;100.00
11345;BME280;5727;42.600;23.028;2024-03-06T04:40:56;93519.22;;;3.92;100.00
11345;BME280;5727;42.600;23.028;2024-03-06T04:43:23;93526.25;;;3.92;100.00
11345;BME280;5727;42.600;23.028;2024-03-06T04:45:49;93521.06;;;3.92;100.00
11345;BME280;5727;42.600;23.028;2024-03-06T04:48:16;93520.56;;;3.90;100.00
11345;BME280;5727;42.600;23.028;2024-03-06T04:50:43;93523.72;;;3.87;100.00
11345;BME280;5727;42.600;23.028;2024-03-06T04:53:10;93521.53;;;3.80;100.00
11345;BME280;5727;42.600;23.028;2024-03-06T04:55:38;93525.34;;;3.83;100.00
11345;BME280;5727;42.600;23.028;2024-03-06T04:58:05;93517.78;;;3.86;100.00
11345;BME280;5727;42.600;23.028;2024-03-06T05:00:33;93524.59;;;3.82;100.00
11345;BME280;5727;42.600;23.028;2024-03-06T05:03:00;93524.38;;;3.79;100.00
11345;BME280;5727;42.600;23.028;2024-03-06T05:05:27;93528.44;;;3.85;100.00
11345;BME280;5727;42.600;23.028;2024-03-06T05:07:54;93524.31;;;3.84;100.00
11345;BME280;5727;42.600;23.028;2024-03-06T05:10:22;93521.72;;;3.84;100.00
11345;BME280;5727;42.600;23.028;2024-03-06T05:12:50;93513.34;;;3.87;100.00
11345;BME280;5727;42.600;23.028;2024-03-06T05:15:17;93527.88;;;3.88;100.00
11345;BME280;5727;42.600;23.028;2024-03-06T05:17:45;93530.34;;;3.79;100.00
11345;BME280;5727;42.600;23.028;2024-03-06T05:20:13;93533.59;;;3.85;100.00
11345;BME280;5727;42.600;23.028;2024-03-06T05:22:39;93534.38;;;3.99;100.00
11345;BME280;5727;42.600;23.028;2024-03-06T05:25:06;93539.75;;;4.02;100.00
11345;BME280;5727;42.600;23.028;2024-03-06T05:27:34;93543.69;;;4.00;100.00
11345;BME280;5727;42.600;23.028;2024-03-06T05:30:02;93543.59;;;4.05;100.00
11345;BME280;5727;42.600;23.028;2024-03-06T05:32:30;93539.75;;;4.16;100.00
11345;BME280;5727;42.600;23.028;2024-03-06T05:34:57;93536.50;;;4.24;100.00
11345;BME280;5727;42.600;23.028;2024-03-06T05:37:24;93548.78;;;4.32;100.00
11345;BME280;5727;42.600;23.028;2024-03-06T05:39:51;93549.03;;;4.44;100.00
11345;BME280;5727;42.600;23.028;2024-03-06T05:42:19;93551.25;;;4.50;100.00
11345;BME280;5727;42.600;23.028;2024-03-06T05:44:46;93552.09;;;4.59;100.00
11345;BME280;5727;42.600;23.028;2024-03-06T05:47:17;93545.72;;;4.65;100.00
11345;BME280;5727;42.600;23.028;2024-03-06T05:49:45;93553.31;;;4.76;100.00
11345;BME280;5727;42.600;23.028;2024-03-06T05:52:13;93553.47;;;4.79;100.00
11345;BME280;5727;42.600;23.028;2024-03-06T05:54:40;93548.16;;;4.84;100.00
11345;BME280;5727;42.600;23.028;2024-03-06T05:57:07;93553.28;;;4.89;100.00
11345;BME280;5727;42.600;23.028;2024-03-06T05:59:34;93556.22;;;4.96;100.00
11345;BME280;5727;42.600;23.028;2024-03-06T06:02:03;93561.31;;;5.01;100.00
11345;BME280;5727;42.600;23.028;2024-03-06T06:04:32;93567.44;;;5.05;100.00
11345;BME280;5727;42.600;23.028;2024-03-06T06:06:59;93565.78;;;5.09;100.00
11345;BME280;5727;42.600;23.028;2024-03-06T06:09:26;93565.69;;;5.14;100.00
11345;BME280;5727;42.600;23.028;2024-03-06T06:11:53;93570.88;;;5.14;100.00
11345;BME280;5727;42.600;23.028;2024-03-06T06:14:20;93574.25;;;5.15;100.00
11345;BME280;5727;42.600;23.028;2024-03-06T06:16:47;93570.75;;;4.97;100.00
11345;BME280;5727;42.600;23.028;2024-03-06T06:19:14;93578.75;;;4.87;100.00
11345;BME280;5727;42.600;23.028;2024-03-06T06:21:43;93574.47;;;4.55;100.00
11345;BME280;5727;42.600;23.028;2024-03-06T06:24:10;93580.44;;;4.42;100.00
11345;BME280;5727;42.600;23.028;2024-03-06T06:26:37;93576.44;;;4.23;100.00
11345;BME280;5727;42.600;23.028;2024-03-06T06:29:04;93577.59;;;3.90;100.00
11345;BME280;5727;42.600;23.028;2024-03-06T06:31:31;93573.75;;;3.87;100.00
11345;BME280;5727;42.600;23.028;2024-03-06T06:33:58;93573.44;;;4.02;100.00
11345;BME280;5727;42.600;23.028;2024-03-06T06:36:25;93567.00;;;4.00;100.00
11345;BME280;5727;42.600;23.028;2024-03-06T06:38:54;93564.81;;;4.07;100.00
11345;BME280;5727;42.600;23.028;2024-03-06T06:41:22;93565.38;;;4.04;100.00
11345;BME280;5727;42.600;23.028;2024-03-06T06:43:50;93571.63;;;4.03;100.00
11345;BME280;5727;42.600;23.028;2024-03-06T06:46:18;93562.78;;;4.04;100.00
11345;BME280;5727;42.600;23.028;2024-03-06T06:48:46;93569.34;;;4.15;100.00
11345;BME280;5727;42.600;23.028;2024-03-06T06:51:14;93564.41;;;4.40;100.00
11345;BME280;5727;42.600;23.028;2024-03-06T06:53:41;93562.56;;;4.68;100.00
11345;BME280;5727;42.600;23.028;2024-03-06T06:56:10;93563.06;;;4.92;100.00
11345;BME280;5727;42.600;23.028;2024-03-06T06:58:37;93558.38;;;5.16;100.00
11345;BME280;5727;42.600;23.028;2024-03-06T07:01:08;93562.97;;;5.41;100.00
11345;BME280;5727;42.600;23.028;2024-03-06T07:03:35;93579.88;;;5.61;100.00
11345;BME280;5727;42.600;23.028;2024-03-06T07:06:02;93569.59;;;5.78;100.00
11345;BME280;5727;42.600;23.028;2024-03-06T07:08:30;93563.75;;;5.95;100.00
11345;BME280;5727;42.600;23.028;2024-03-06T07:10:57;93565.94;;;6.10;100.00
11345;BME280;5727;42.600;23.028;2024-03-06T07:13:25;93567.53;;;6.28;100.00
11345;BME280;5727;42.600;23.028;2024-03-06T07:15:52;93568.34;;;6.45;100.00
11345;BME280;5727;42.600;23.028;2024-03-06T07:18:19;93567.16;;;6.60;100.00
11345;BME280;5727;42.600;23.028;2024-03-06T07:20:46;93571.31;;;6.78;100.00
11345;BME280;5727;42.600;23.028;2024-03-06T07:23:14;93573.03;;;6.91;100.00
11345;BME280;5727;42.600;23.028;2024-03-06T07:25:41;93570.72;;;6.98;100.00
11345;BME280;5727;42.600;23.028;2024-03-06T07:28:08;93569.94;;;7.15;100.00
11345;BME280;5727;42.600;23.028;2024-03-06T07:30:36;93570.88;;;7.27;100.00
11345;BME280;5727;42.600;23.028;2024-03-06T07:33:03;93572.69;;;7.44;100.00
11345;BME280;5727;42.600;23.028;2024-03-06T07:35:31;93573.31;;;7.58;100.00
11345;BME280;5727;42.600;23.028;2024-03-06T07:37:58;93569.56;;;7.76;100.00
11345;BME280;5727;42.600;23.028;2024-03-06T07:40:25;93568.16;;;7.96;100.00
11345;BME280;5727;42.600;23.028;2024-03-06T07:42:52;93565.66;;;8.08;100.00
11345;BME280;5727;42.600;23.028;2024-03-06T07:45:19;93560.25;;;8.21;100.00
11345;BME280;5727;42.600;23.028;2024-03-06T07:47:47;93564.38;;;8.31;100.00
11345;BME280;5727;42.600;23.028;2024-03-06T07:50:14;93560.50;;;8.37;100.00
11345;BME280;5727;42.600;23.028;2024-03-06T07:52:44;93560.25;;;8.21;100.00
11345;BME280;5727;42.600;23.028;2024-03-06T07:55:11;93561.28;;;7.91;100.00
11345;BME280;5727;42.600;23.028;2024-03-06T07:57:39;93563.06;;;7.99;100.00
11345;BME280;5727;42.600;23.028;2024-03-06T08:00:06;93561.75;;;7.85;100.00
11345;BME280;5727;42.600;23.028;2024-03-06T08:02:39;93554.03;;;7.97;100.00
11345;BME280;5727;42.600;23.028;2024-03-06T08:05:10;93556.94;;;8.04;100.00
11345;BME280;5727;42.600;23.028;2024-03-06T08:07:38;93556.59;;;8.14;100.00
11345;BME280;5727;42.600;23.028;2024-03-06T08:10:08;93559.09;;;8.40;100.00
11345;BME280;5727;42.600;23.028;2024-03-06T08:12:38;93561.66;;;8.48;100.00
11345;BME280;5727;42.600;23.028;2024-03-06T08:15:07;93568.69;;;8.27;100.00
11345;BME280;5727;42.600;23.028;2024-03-06T08:17:38;93561.53;;;8.45;100.00
11345;BME280;5727;42.600;23.028;2024-03-06T08:20:09;93560.81;;;8.65;100.00
11345;BME280;5727;42.600;23.028;2024-03-06T08:22:37;93563.03;;;8.54;100.00
11345;BME280;5727;42.600;23.028;2024-03-06T08:25:06;93557.16;;;8.57;100.00
11345;BME280;5727;42.600;23.028;2024-03-06T08:27:34;93558.97;;;8.65;100.00
11345;BME280;5727;42.600;23.028;2024-03-06T08:30:01;93559.06;;;8.48;100.00
11345;BME280;5727;42.600;23.028;2024-03-06T08:32:30;93569.19;;;8.50;100.00
11345;BME280;5727;42.600;23.028;2024-03-06T08:34:58;93560.78;;;8.44;100.00
11345;BME280;5727;42.600;23.028;2024-03-06T08:37:27;93560.16;;;8.47;100.00
11345;BME280;5727;42.600;23.028;2024-03-06T08:39:54;93550.22;;;8.61;100.00
11345;BME280;5727;42.600;23.028;2024-03-06T08:42:21;93564.44;;;8.72;100.00
11345;BME280;5727;42.600;23.028;2024-03-06T08:44:48;93563.25;;;8.70;100.00
11345;BME280;5727;42.600;23.028;2024-03-06T08:47:15;93562.81;;;8.68;100.00
11345;BME280;5727;42.600;23.028;2024-03-06T08:49:42;93564.38;;;8.89;100.00
11345;BME280;5727;42.600;23.028;2024-03-06T08:52:09;93564.53;;;9.05;100.00
11345;BME280;5727;42.600;23.028;2024-03-06T08:54:37;93569.06;;;9.16;100.00
11345;BME280;5727;42.600;23.028;2024-03-06T08:57:07;93567.16;;;9.26;100.00
11345;BME280;5727;42.600;23.028;2024-03-06T08:59:34;93567.53;;;9.36;100.00
11345;BME280;5727;42.600;23.028;2024-03-06T09:02:12;93563.31;;;9.44;100.00
11345;BME280;5727;42.600;23.028;2024-03-06T09:04:40;93566.41;;;9.58;100.00
11345;BME280;5727;42.600;23.028;2024-03-06T09:07:07;93565.94;;;9.76;100.00
11345;BME280;5727;42.600;23.028;2024-03-06T09:09:34;93564.75;;;9.74;100.00
11345;BME280;5727;42.600;23.028;2024-03-06T09:12:04;93566.94;;;9.84;100.00
11345;BME280;5727;42.600;23.028;2024-03-06T09:14:31;93560.66;;;9.97;100.00
11345;BME280;5727;42.600;23.028;2024-03-06T09:16:58;93566.56;;;10.06;100.00
11345;BME280;5727;42.600;23.028;2024-03-06T09:19:25;93565.50;;;10.19;100.00
11345;BME280;5727;42.600;23.028;2024-03-06T09:21:52;93565.72;;;10.26;100.00
11345;BME280;5727;42.600;23.028;2024-03-06T09:24:20;93565.94;;;10.45;100.00
11345;BME280;5727;42.600;23.028;2024-03-06T09:26:48;93562.78;;;10.40;100.00
11345;BME280;5727;42.600;23.028;2024-03-06T09:29:17;93561.91;;;10.36;100.00
11345;BME280;5727;42.600;23.028;2024-03-06T09:31:44;93559.31;;;10.48;100.00
11345;BME280;5727;42.600;23.028;2024-03-06T09:34:13;93558.09;;;10.57;100.00
11345;BME280;5727;42.600;23.028;2024-03-06T09:36:40;93555.03;;;10.67;100.00
11345;BME280;5727;42.600;23.028;2024-03-06T09:39:10;93554.91;;;10.88;100.00
11345;BME280;5727;42.600;23.028;2024-03-06T09:41:37;93552.69;;;11.02;100.00
11345;BME280;5727;42.600;23.028;2024-03-06T09:44:06;93545.09;;;11.25;100.00
11345;BME280;5727;42.600;23.028;2024-03-06T09:46:35;93549.50;;;11.48;100.00
11345;BME280;5727;42.600;23.028;2024-03-06T09:49:02;93549.03;;;11.58;100.00
11345;BME280;5727;42.600;23.028;2024-03-06T09:51:29;93541.97;;;11.74;100.00
11345;BME280;5727;42.600;23.028;2024-03-06T09:53:58;93551.53;;;11.67;97.64
11345;BME280;5727;42.600;23.028;2024-03-06T09:56:25;93542.25;;;11.57;98.47
11345;BME280;5727;42.600;23.028;2024-03-06T09:58:52;93553.91;;;11.72;94.69
11345;BME280;5727;42.600;23.028;2024-03-06T10:01:21;93541.91;;;11.86;93.48
11345;BME280;5727;42.600;23.028;2024-03-06T10:03:51;93542.09;;;11.93;92.98
11345;BME280;5727;42.600;23.028;2024-03-06T10:06:18;93545.66;;;12.01;93.00
11345;BME280;5727;42.600;23.028;2024-03-06T10:08:46;93535.56;;;12.03;92.85
11345;BME280;5727;42.600;23.028;2024-03-06T10:11:17;93534.56;;;12.08;91.96
11345;BME280;5727;42.600;23.028;2024-03-06T10:13:45;93527.03;;;12.06;92.06
11345;BME280;5727;42.600;23.028;2024-03-06T10:16:11;93527.19;;;12.13;91.54
11345;BME280;5727;42.600;23.028;2024-03-06T10:18:39;93523.72;;;12.25;91.22
11345;BME280;5727;42.600;23.028;2024-03-06T10:21:08;93521.25;;;12.32;90.73
11345;BME280;5727;42.600;23.028;2024-03-06T10:23:35;93516.41;;;12.49;89.53
11345;BME280;5727;42.600;23.028;2024-03-06T10:26:02;93524.38;;;12.53;86.04
11345;BME280;5727;42.600;23.028;2024-03-06T10:28:33;93516.78;;;12.82;84.71
11345;BME280;5727;42.600;23.028;2024-03-06T10:31:04;93516.78;;;12.82;84.67
11345;BME280;5727;42.600;23.028;2024-03-06T10:33:33;93512.78;;;12.88;83.08
11345;BME280;5727;42.600;23.028;2024-03-06T10:36:00;93507.97;;;12.91;81.53
11345;BME280;5727;42.600;23.028;2024-03-06T10:38:30;93512.22;;;12.99;79.40
11345;BME280;5727;42.600;23.028;2024-03-06T10:41:00;93503.66;;;13.02;79.79
11345;BME280;5727;42.600;23.028;2024-03-06T10:43:28;93509.53;;;13.30;80.41
11345;BME280;5727;42.600;23.028;2024-03-06T10:46:00;93503.16;;;13.50;80.22
11345;BME280;5727;42.600;23.028;2024-03-06T10:48:30;93499.53;;;13.77;79.97
11345;BME280;5727;42.600;23.028;2024-03-06T10:51:00;93496.19;;;14.03;75.22
11345;BME280;5727;42.600;23.028;2024-03-06T10:53:30;93495.44;;;14.25;74.29
11345;BME280;5727;42.600;23.028;2024-03-06T10:55:58;93488.69;;;14.50;71.28
11345;BME280;5727;42.600;23.028;2024-03-06T10:58:26;93479.81;;;14.61;71.36
11345;BME280;5727;42.600;23.028;2024-03-06T11:00:54;93468.97;;;14.66;69.98
11345;BME280;5727;42.600;23.028;2024-03-06T11:03:23;93470.66;;;14.82;69.30
11345;BME280;5727;42.600;23.028;2024-03-06T11:05:52;93472.63;;;14.85;67.71
11345;BME280;5727;42.600;23.028;2024-03-06T11:08:19;93461.53;;;15.02;67.46
11345;BME280;5727;42.600;23.028;2024-03-06T11:10:48;93457.13;;;15.13;64.08
11345;BME280;5727;42.600;23.028;2024-03-06T11:13:22;93452.34;;;15.22;59.54
11345;BME280;5727;42.600;23.028;2024-03-06T11:15:50;93443.38;;;15.30;59.16
11345;BME280;5727;42.600;23.028;2024-03-06T11:18:40;93440.38;;;15.31;64.43
11345;BME280;5727;42.600;23.028;2024-03-06T11:21:29;93432.06;;;15.29;63.75
11345;BME280;5727;42.600;23.028;2024-03-06T11:24:13;93430.81;;;14.87;64.15
11345;BME280;5727;42.600;23.028;2024-03-06T11:26:46;93425.97;;;14.62;64.26
11345;BME280;5727;42.600;23.028;2024-03-06T11:29:16;93427.91;;;14.65;64.55
11345;BME280;5727;42.600;23.028;2024-03-06T11:32:01;93431.84;;;14.79;64.58
11345;BME280;5727;42.600;23.028;2024-03-06T11:34:29;93429.59;;;14.81;63.85
11345;BME280;5727;42.600;23.028;2024-03-06T11:36:57;93420.72;;;14.92;63.54
11345;BME280;5727;42.600;23.028;2024-03-06T11:39:28;93417.94;;;15.15;65.32
11345;BME280;5727;42.600;23.028;2024-03-06T11:41:57;93419.41;;;15.42;64.89
11345;BME280;5727;42.600;23.028;2024-03-06T11:44:24;93421.03;;;15.53;61.55
11345;BME280;5727;42.600;23.028;2024-03-06T11:46:57;93412.75;;;15.55;62.11
11345;BME280;5727;42.600;23.028;2024-03-06T11:49:26;93408.13;;;15.45;61.32
11345;BME280;5727;42.600;23.028;2024-03-06T11:51:55;93405.28;;;15.64;63.18
11345;BME280;5727;42.600;23.028;2024-03-06T11:54:23;93405.16;;;15.90;60.16
11345;BME280;5727;42.600;23.028;2024-03-06T11:56:54;93403.34;;;16.01;59.32
11345;BME280;5727;42.600;23.028;2024-03-06T11:59:23;93395.56;;;16.19;59.00
11345;BME280;5727;42.600;23.028;2024-03-06T12:01:51;93391.50;;;16.35;56.94
11345;BME280;5727;42.600;23.028;2024-03-06T12:04:19;93393.19;;;16.58;56.82
11345;BME280;5727;42.600;23.028;2024-03-06T12:06:46;93388.63;;;16.58;54.96
11345;BME280;5727;42.600;23.028;2024-03-06T12:09:14;93386.47;;;16.81;53.13
11345;BME280;5727;42.600;23.028;2024-03-06T12:11:41;93388.00;;;16.79;51.90
11345;BME280;5727;42.600;23.028;2024-03-06T12:14:13;93382.94;;;16.53;53.17
11345;BME280;5727;42.600;23.028;2024-03-06T12:16:43;93379.59;;;16.59;51.68
11345;BME280;5727;42.600;23.028;2024-03-06T12:19:11;93378.56;;;16.20;51.34
11345;BME280;5727;42.600;23.028;2024-03-06T12:21:39;93381.19;;;15.69;53.54
11345;BME280;5727;42.600;23.028;2024-03-06T12:24:07;93377.94;;;15.42;55.38
11345;BME280;5727;42.600;23.028;2024-03-06T12:26:35;93380.50;;;15.39;55.86
11345;BME280;5727;42.600;23.028;2024-03-06T12:29:06;93367.25;;;15.32;56.68
11345;BME280;5727;42.600;23.028;2024-03-06T12:31:35;93365.38;;;14.99;57.65
11345;BME280;5727;42.600;23.028;2024-03-06T12:34:05;93373.22;;;14.92;58.99
11345;BME280;5727;42.600;23.028;2024-03-06T12:36:33;93372.41;;;14.85;58.89
11345;BME280;5727;42.600;23.028;2024-03-06T12:39:00;93376.59;;;14.93;58.32
11345;BME280;5727;42.600;23.028;2024-03-06T12:41:28;93374.13;;;14.74;58.59
11345;BME280;5727;42.600;23.028;2024-03-06T12:43:56;93369.03;;;14.88;59.00
11345;BME280;5727;42.600;23.028;2024-03-06T12:46:23;93373.91;;;14.86;58.22
11345;BME280;5727;42.600;23.028;2024-03-06T12:48:52;93375.88;;;14.62;59.64
11345;BME280;5727;42.600;23.028;2024-03-06T12:51:20;93375.19;;;14.39;59.45
11345;BME280;5727;42.600;23.028;2024-03-06T12:53:47;93369.03;;;14.28;60.20
11345;BME280;5727;42.600;23.028;2024-03-06T12:56:14;93371.84;;;14.16;60.77
11345;BME280;5727;42.600;23.028;2024-03-06T12:58:41;93375.28;;;13.94;62.23
11345;BME280;5727;42.600;23.028;2024-03-06T13:01:08;93372.53;;;13.87;63.30
11345;BME280;5727;42.600;23.028;2024-03-06T13:03:35;93378.50;;;13.84;63.86